createdAt,value
2022-12-16T00:01:07.766Z,-0.87
2022-12-16T00:03:36.651Z,-0.83
2022-12-16T00:06:04.894Z,-0.81
2022-12-16T00:08:36.177Z,-0.79
2022-12-16T00:11:03.650Z,-0.74
2022-12-16T00:13:33.487Z,-0.72
2022-12-16T00:16:05.131Z,-0.70
2022-12-16T00:18:32.599Z,-0.70
2022-12-16T00:21:00.007Z,-0.74
2022-12-16T00:23:28.298Z,-0.77
2022-12-16T00:25:55.783Z,-0.78
2022-12-16T00:28:23.283Z,-0.75
2022-12-16T00:30:53.337Z,-0.78
2022-12-16T00:33:23.858Z,-0.75
2022-12-16T00:35:51.785Z,-0.72
2022-12-16T00:38:19.414Z,-0.68
2022-12-16T00:40:47.464Z,-0.72
2022-12-16T00:43:15.120Z,-0.68
2022-12-16T00:45:42.530Z,-0.63
2022-12-16T00:48:11.355Z,-0.66
2022-12-16T00:50:38.943Z,-0.73
2022-12-16T00:53:06.405Z,-0.80
2022-12-16T00:55:33.868Z,-0.81
2022-12-16T00:58:01.306Z,-0.94
2022-12-16T01:00:28.726Z,-0.91
2022-12-16T01:02:56.214Z,-0.96
2022-12-16T01:05:26.897Z,-1.00
2022-12-16T01:07:55.216Z,-0.96
2022-12-16T01:10:22.695Z,-1.00
2022-12-16T01:12:50.126Z,-1.01
2022-12-16T01:15:18.256Z,-1.03
2022-12-16T01:17:45.704Z,-1.09
2022-12-16T01:20:14.169Z,-1.16
2022-12-16T01:22:42.973Z,-1.20
2022-12-16T01:25:12.798Z,-1.24
2022-12-16T01:27:40.270Z,-1.25
2022-12-16T01:30:08.979Z,-1.29
2022-12-16T01:32:36.508Z,-1.33
2022-12-16T01:35:10.694Z,-1.42
2022-12-16T01:37:47.404Z,-1.45
2022-12-16T01:40:17.974Z,-1.48
2022-12-16T01:42:45.889Z,-1.53
2022-12-16T01:45:28.923Z,-1.49
2022-12-16T01:47:58.131Z,-1.47
2022-12-16T01:50:26.630Z,-1.47
2022-12-16T01:52:58.293Z,-1.49
2022-12-16T01:55:28.655Z,-1.56
2022-12-16T01:57:57.295Z,-1.60
2022-12-16T02:00:24.743Z,-1.64
2022-12-16T02:02:52.509Z,-1.66
2022-12-16T02:05:22.821Z,-1.64
2022-12-16T02:07:55.399Z,-1.64
2022-12-16T02:10:28.665Z,-1.56
2022-12-16T02:12:59.607Z,-1.55
2022-12-16T02:15:35.252Z,-1.49
2022-12-16T02:18:06.916Z,-1.46
2022-12-16T02:20:51.376Z,-1.51
2022-12-16T02:23:38.173Z,-1.50
2022-12-16T02:26:36.748Z,-1.47
2022-12-16T02:29:19.821Z,-1.46
2022-12-16T02:31:53.972Z,-1.45
2022-12-16T02:34:30.881Z,-1.44
2022-12-16T02:37:03.840Z,-1.43
2022-12-16T02:39:36.728Z,-1.46
2022-12-16T02:42:08.773Z,-1.44
2022-12-16T02:44:41.361Z,-1.35
2022-12-16T02:47:10.075Z,-1.33
2022-12-16T02:49:47.355Z,-1.34
2022-12-16T02:52:15.366Z,-1.38
2022-12-16T02:54:43.938Z,-1.37
2022-12-16T02:57:18.244Z,-1.38
2022-12-16T02:59:50.940Z,-1.36
2022-12-16T03:02:22.080Z,-1.34
2022-12-16T03:04:52.233Z,-1.33
2022-12-16T03:07:21.434Z,-1.29
2022-12-16T03:09:50.071Z,-1.28
2022-12-16T03:12:19.048Z,-1.24
2022-12-16T03:14:49.253Z,-1.23
2022-12-16T03:17:17.992Z,-1.32
2022-12-16T03:19:50.727Z,-1.38
2022-12-16T03:22:21.132Z,-1.39
2022-12-16T03:24:49.342Z,-1.38
2022-12-16T03:27:19.373Z,-1.37
2022-12-16T03:29:51.431Z,-1.40
2022-12-16T03:32:23.454Z,-1.45
2022-12-16T03:34:53.947Z,-1.46
2022-12-16T03:37:23.269Z,-1.45
2022-12-16T03:39:52.436Z,-1.44
2022-12-16T03:42:19.846Z,-1.46
2022-12-16T03:44:48.497Z,-1.42
2022-12-16T03:47:21.448Z,-1.46
2022-12-16T03:49:52.317Z,-1.51
2022-12-16T03:52:19.748Z,-1.51
2022-12-16T03:54:47.181Z,-1.50
2022-12-16T03:57:15.661Z,-1.48
2022-12-16T03:59:43.262Z,-1.49
2022-12-16T04:02:10.862Z,-1.50
2022-12-16T04:04:38.410Z,-1.44
2022-12-16T04:07:22.100Z,-1.44
2022-12-16T04:09:50.209Z,-1.45
2022-12-16T04:12:35.114Z,-1.42
2022-12-16T04:15:19.877Z,-1.48
2022-12-16T04:18:04.845Z,-1.48
2022-12-16T04:20:59.227Z,-1.46
2022-12-16T04:23:46.938Z,-1.50
2022-12-16T04:26:14.589Z,-1.48
2022-12-16T04:28:42.163Z,-1.53
2022-12-16T04:31:09.812Z,-1.52
2022-12-16T04:33:55.152Z,-1.51
2022-12-16T04:36:42.211Z,-1.50
2022-12-16T04:39:28.258Z,-1.50
2022-12-16T04:42:13.578Z,-1.48
2022-12-16T04:44:58.793Z,-1.48
2022-12-16T04:47:44.067Z,-1.59
2022-12-16T04:50:28.865Z,-1.62
2022-12-16T04:53:13.817Z,-1.63
2022-12-16T04:56:04.134Z,-1.71
2022-12-16T04:58:49.930Z,-1.71
2022-12-16T05:01:34.887Z,-1.70
2022-12-16T05:04:20.245Z,-1.70
2022-12-16T05:07:04.953Z,-1.73
2022-12-16T05:09:49.790Z,-1.78
2022-12-16T05:12:35.646Z,-1.79
2022-12-16T05:15:28.866Z,-1.86
2022-12-16T05:18:15.985Z,-1.88
2022-12-16T05:21:00.897Z,-1.87
2022-12-16T05:23:45.662Z,-1.91
2022-12-16T05:26:30.538Z,-2.01
2022-12-16T05:29:16.732Z,-2.01
2022-12-16T05:32:01.427Z,-2.10
2022-12-16T05:34:46.177Z,-2.12
2022-12-16T05:37:31.056Z,-2.13
2022-12-16T05:40:16.025Z,-2.18
2022-12-16T05:43:03.343Z,-2.16
2022-12-16T05:45:49.538Z,-2.17
2022-12-16T05:48:34.333Z,-2.21
2022-12-16T05:51:19.011Z,-2.33
2022-12-16T05:54:04.000Z,-2.39
2022-12-16T05:56:48.682Z,-2.48
2022-12-16T05:59:33.669Z,-2.51
2022-12-16T06:02:19.691Z,-2.60
2022-12-16T06:05:05.001Z,-2.72
2022-12-16T06:08:04.258Z,-2.78
2022-12-16T06:10:49.247Z,-2.83
2022-12-16T06:13:34.409Z,-2.78
2022-12-16T06:16:19.516Z,-2.82
2022-12-16T06:19:05.992Z,-2.82
2022-12-16T06:21:50.888Z,-2.76
2022-12-16T06:24:36.005Z,-2.70
2022-12-16T06:27:20.834Z,-2.74
2022-12-16T06:30:05.656Z,-2.79
2022-12-16T06:32:50.548Z,-2.56
2022-12-16T06:35:36.712Z,-2.76
2022-12-16T06:38:30.211Z,-2.88
2022-12-16T06:41:15.136Z,-3.01
2022-12-16T06:44:00.077Z,-3.18
2022-12-16T06:46:45.043Z,-3.39
2022-12-16T06:49:26.427Z,-3.52
2022-12-16T06:52:12.659Z,-3.52
2022-12-16T06:54:57.545Z,-2.93
2022-12-16T06:57:42.320Z,-3.05
2022-12-16T07:00:28.202Z,-3.15
2022-12-16T07:03:12.988Z,-3.28
2022-12-16T07:05:58.006Z,-3.35
2022-12-16T07:08:44.144Z,-3.11
2022-12-16T07:11:29.093Z,-3.10
2022-12-16T07:14:19.234Z,-3.02
2022-12-16T07:17:03.943Z,-3.07
2022-12-16T07:19:48.861Z,-3.19
2022-12-16T07:22:34.103Z,-3.22
2022-12-16T07:25:20.137Z,-3.24
2022-12-16T07:28:05.168Z,-3.31
2022-12-16T07:30:51.648Z,-3.37
2022-12-16T07:33:36.795Z,-3.41
2022-12-16T07:36:21.870Z,-3.31
2022-12-16T07:39:06.819Z,-3.30
2022-12-16T07:41:53.314Z,-3.37
2022-12-16T07:44:38.404Z,-3.44
2022-12-16T07:47:23.302Z,-3.47
2022-12-16T07:50:08.057Z,-3.54
2022-12-16T07:52:53.476Z,-3.61
2022-12-16T07:55:40.584Z,-3.72
2022-12-16T07:58:26.839Z,-3.77
2022-12-16T08:01:11.728Z,-3.83
2022-12-16T08:03:56.899Z,-3.88
2022-12-16T08:06:41.982Z,-3.88
2022-12-16T08:09:26.803Z,-3.95
2022-12-16T08:12:11.701Z,-3.96
2022-12-16T08:14:57.811Z,-3.90
2022-12-16T08:17:42.719Z,-3.80
2022-12-16T08:20:27.972Z,-3.68
2022-12-16T08:23:12.826Z,-3.54
2022-12-16T08:25:57.782Z,-3.43
2022-12-16T08:28:42.703Z,-3.39
2022-12-16T08:31:28.830Z,-3.30
2022-12-16T08:34:14.184Z,-3.26
2022-12-16T08:36:59.017Z,-3.24
2022-12-16T08:39:43.893Z,-3.25
2022-12-16T08:42:28.528Z,-3.26
2022-12-16T08:45:18.566Z,-3.32
2022-12-16T08:48:19.259Z,-3.30
2022-12-16T08:51:04.038Z,-3.32
2022-12-16T08:54:00.436Z,-3.34
2022-12-16T08:56:45.247Z,-3.32
2022-12-16T08:59:30.035Z,-3.30
2022-12-16T09:02:14.854Z,-3.27
2022-12-16T09:05:01.126Z,-3.27
2022-12-16T09:07:46.661Z,-3.18
2022-12-16T09:10:37.605Z,-3.03
2022-12-16T09:13:26.088Z,-2.87
2022-12-16T09:16:15.722Z,-2.69
2022-12-16T09:19:02.571Z,-2.65
2022-12-16T09:21:48.670Z,-2.55
2022-12-16T09:24:33.587Z,-2.39
2022-12-16T09:27:18.432Z,-2.19
2022-12-16T09:30:03.242Z,-2.06
2022-12-16T09:32:48.175Z,-2.13
2022-12-16T09:35:33.035Z,-2.15
2022-12-16T09:38:19.248Z,-2.13
2022-12-16T09:41:04.047Z,-2.09
2022-12-16T09:43:55.642Z,-2.01
2022-12-16T09:46:43.987Z,-1.92
2022-12-16T09:49:34.818Z,-1.95
2022-12-16T09:52:20.760Z,-1.96
2022-12-16T09:55:07.252Z,-1.89
2022-12-16T09:57:54.257Z,-1.84
2022-12-16T10:00:41.346Z,-1.68
2022-12-16T10:03:33.956Z,-1.64
2022-12-16T10:06:22.107Z,-1.62
2022-12-16T10:09:12.005Z,-1.47
2022-12-16T10:12:01.990Z,-1.37
2022-12-16T10:15:01.796Z,-1.48
2022-12-16T10:17:46.605Z,-1.42
2022-12-16T10:20:34.921Z,-1.28
2022-12-16T10:23:23.722Z,-1.21
2022-12-16T10:26:13.157Z,-1.05
2022-12-16T10:29:03.426Z,-0.97
2022-12-16T10:31:49.311Z,-0.79
2022-12-16T10:34:36.998Z,-0.61
2022-12-16T10:37:21.064Z,-0.74
2022-12-16T10:40:08.783Z,-0.68
2022-12-16T10:42:55.619Z,-0.44
2022-12-16T10:45:44.138Z,-0.44
2022-12-16T10:48:29.601Z,-0.59
2022-12-16T10:51:14.984Z,-0.52
2022-12-16T10:53:59.779Z,-0.51
2022-12-16T10:56:55.702Z,-0.37
2022-12-16T10:59:42.609Z,-0.27
2022-12-16T11:02:37.800Z,-0.27
2022-12-16T11:05:40.038Z,-0.12
2022-12-16T11:08:39.974Z,-0.09
2022-12-16T11:11:30.492Z,-0.11
2022-12-16T11:14:27.530Z,0.01
2022-12-16T11:17:29.251Z,0.06
2022-12-16T11:20:26.308Z,0.13
2022-12-16T11:23:22.071Z,0.27
2022-12-16T11:26:21.140Z,0.25
2022-12-16T11:29:20.035Z,0.13
2022-12-16T11:32:08.428Z,0.02
2022-12-16T11:34:55.315Z,-0.38
2022-12-16T11:37:42.838Z,-0.50
2022-12-16T11:40:31.042Z,-0.31
2022-12-16T11:43:17.208Z,-0.12
2022-12-16T11:46:02.821Z,-0.03
2022-12-16T11:49:03.404Z,-0.03
2022-12-16T11:51:51.347Z,-0.11
2022-12-16T11:54:45.247Z,-0.06
2022-12-16T11:57:35.695Z,0.05
2022-12-16T12:00:22.288Z,-0.02
2022-12-16T12:03:09.267Z,-0.13
2022-12-16T12:05:57.098Z,-0.07
2022-12-16T12:08:46.130Z,0.02
2022-12-16T12:11:37.073Z,0.06
2022-12-16T12:14:28.507Z,0.34
2022-12-16T12:17:18.395Z,0.44
2022-12-16T12:20:08.601Z,0.64
2022-12-16T12:22:54.663Z,0.65
2022-12-16T12:25:42.461Z,0.95
2022-12-16T12:28:35.153Z,1.06
2022-12-16T12:31:29.487Z,0.94
2022-12-16T12:34:19.488Z,0.88
2022-12-16T12:37:07.865Z,0.92
2022-12-16T12:39:55.656Z,1.06
2022-12-16T12:42:49.607Z,1.21
2022-12-16T12:45:56.102Z,1.03
2022-12-16T12:48:43.401Z,1.24
2022-12-16T12:51:31.429Z,1.26
2022-12-16T12:54:21.370Z,1.40
2022-12-16T12:57:07.538Z,1.48
2022-12-16T13:00:02.225Z,1.29
2022-12-16T13:02:56.321Z,1.23
2022-12-16T13:05:42.874Z,1.37
2022-12-16T13:08:42.876Z,1.70
2022-12-16T13:11:35.016Z,1.59
2022-12-16T13:14:20.591Z,1.67
2022-12-16T13:17:25.464Z,1.56
2022-12-16T13:20:18.220Z,1.86
2022-12-16T13:23:04.203Z,2.30
2022-12-16T13:25:55.942Z,2.19
2022-12-16T13:28:42.528Z,2.04
2022-12-16T13:31:27.757Z,1.89
2022-12-16T13:34:13.486Z,1.77
2022-12-16T13:37:04.373Z,1.78
2022-12-16T13:39:49.444Z,1.70
2022-12-16T13:42:50.554Z,1.54
2022-12-16T13:45:43.577Z,1.45
2022-12-16T13:48:44.043Z,1.58
2022-12-16T13:51:49.766Z,1.36
2022-12-16T13:54:35.884Z,1.36
2022-12-16T13:57:21.858Z,1.22
2022-12-16T14:00:21.728Z,0.93
2022-12-16T14:03:09.310Z,0.59
2022-12-16T14:05:55.782Z,0.73
2022-12-16T14:08:42.185Z,0.73
2022-12-16T14:11:39.657Z,1.05
2022-12-16T14:14:26.923Z,0.86
2022-12-16T14:17:13.948Z,1.01
2022-12-16T14:20:05.453Z,0.94
2022-12-16T14:22:59.957Z,0.82
2022-12-16T14:25:44.930Z,0.64
2022-12-16T14:28:38.141Z,0.57
2022-12-16T14:31:24.153Z,0.56
2022-12-16T14:34:11.991Z,0.40
2022-12-16T14:36:57.904Z,0.36
2022-12-16T14:39:48.870Z,0.26
2022-12-16T14:42:37.165Z,0.25
2022-12-16T14:45:24.133Z,0.27
2022-12-16T14:48:09.123Z,0.23
2022-12-16T14:50:54.232Z,0.26
2022-12-16T14:53:39.970Z,0.18
2022-12-16T14:56:28.832Z,0.07
2022-12-16T14:59:25.256Z,0.11
2022-12-16T15:02:13.971Z,0.04
2022-12-16T15:04:59.313Z,-0.01
2022-12-16T15:07:47.878Z,-0.07
2022-12-16T15:10:33.840Z,-0.08
2022-12-16T15:13:19.066Z,-0.10
2022-12-16T15:16:05.824Z,-0.21
2022-12-16T15:18:54.095Z,-0.25
2022-12-16T15:21:38.781Z,-0.25
2022-12-16T15:24:26.051Z,-0.18
2022-12-16T15:27:27.358Z,0.24
2022-12-16T15:30:12.369Z,0.09
2022-12-16T15:33:00.529Z,-0.04
2022-12-16T15:35:48.446Z,-0.04
2022-12-16T15:38:40.486Z,-0.08
2022-12-16T15:41:25.828Z,-0.15
2022-12-16T15:44:10.622Z,-0.19
2022-12-16T15:46:55.832Z,-0.23
2022-12-16T15:49:42.971Z,-0.24
2022-12-16T15:52:47.835Z,-0.31
2022-12-16T15:55:43.836Z,-0.44
2022-12-16T15:58:33.247Z,-0.51
2022-12-16T16:01:18.860Z,-0.56
2022-12-16T16:04:08.697Z,-0.62
2022-12-16T16:06:54.385Z,-0.66
2022-12-16T16:09:41.637Z,-0.70
2022-12-16T16:12:27.448Z,-0.68
2022-12-16T16:15:12.214Z,-0.61
2022-12-16T16:17:57.087Z,-0.61
2022-12-16T16:20:53.428Z,-0.69
2022-12-16T16:23:38.216Z,-0.73
2022-12-16T16:26:24.549Z,-0.72
2022-12-16T16:29:09.752Z,-0.62
2022-12-16T16:31:57.158Z,-0.56
2022-12-16T16:35:00.541Z,-0.51
2022-12-16T16:37:45.572Z,-0.53
2022-12-16T16:40:37.810Z,-0.57
2022-12-16T16:43:23.862Z,-0.64
2022-12-16T16:46:11.947Z,-0.63
2022-12-16T16:48:57.159Z,-0.60
2022-12-16T16:51:41.936Z,-0.60
2022-12-16T16:54:26.862Z,-0.50
2022-12-16T16:57:11.697Z,-0.54
2022-12-16T16:59:57.904Z,-0.56
2022-12-16T17:02:43.462Z,-0.65
2022-12-16T17:05:28.821Z,-0.69
2022-12-16T17:08:13.787Z,-0.77
2022-12-16T17:10:58.597Z,-0.73
2022-12-16T17:13:43.383Z,-0.74
2022-12-16T17:16:30.205Z,-0.73
2022-12-16T17:19:15.199Z,-0.69
2022-12-16T17:22:00.279Z,-0.80
2022-12-16T17:24:48.400Z,-0.87
2022-12-16T17:27:36.541Z,-0.82
2022-12-16T17:30:22.379Z,-0.76
2022-12-16T17:33:08.414Z,-0.73
2022-12-16T17:35:53.206Z,-0.74
2022-12-16T17:38:38.091Z,-0.77
2022-12-16T17:41:25.698Z,-0.78
2022-12-16T17:44:11.337Z,-0.83
2022-12-16T17:46:56.569Z,-0.84
2022-12-16T17:49:42.912Z,-0.82
2022-12-16T17:52:27.890Z,-0.83
2022-12-16T17:55:12.704Z,-0.84
2022-12-16T17:57:57.613Z,-0.88
2022-12-16T18:00:42.698Z,-0.92
2022-12-16T18:03:27.760Z,-0.95
2022-12-16T18:06:15.815Z,-0.93
2022-12-16T18:09:00.847Z,-0.97
2022-12-16T18:11:45.589Z,-1.06
2022-12-16T18:14:30.668Z,-1.11
2022-12-16T18:17:15.523Z,-1.13
2022-12-16T18:20:00.341Z,-1.16
2022-12-16T18:22:46.538Z,-1.18
2022-12-16T18:25:31.518Z,-1.19
2022-12-16T18:28:19.324Z,-1.18
2022-12-16T18:31:04.407Z,-1.20
2022-12-16T18:33:49.462Z,-1.22
2022-12-16T18:36:34.206Z,-1.19
2022-12-16T18:39:20.231Z,-1.18
2022-12-16T18:42:05.522Z,-1.17
2022-12-16T18:45:02.385Z,-1.15
2022-12-16T18:47:47.156Z,-1.22
2022-12-16T18:50:37.532Z,-1.22
2022-12-16T18:53:23.786Z,-1.27
2022-12-16T18:56:18.769Z,-1.32
2022-12-16T18:59:03.818Z,-1.35
2022-12-16T19:01:48.702Z,-1.34
2022-12-16T19:04:33.518Z,-1.34
2022-12-16T19:07:18.428Z,-1.37
2022-12-16T19:10:03.162Z,-1.37
2022-12-16T19:12:49.134Z,-1.34
2022-12-16T19:15:38.055Z,-1.35
2022-12-16T19:18:28.550Z,-1.32
2022-12-16T19:21:13.324Z,-1.28
2022-12-16T19:24:01.463Z,-1.28
2022-12-16T19:26:46.347Z,-1.32
2022-12-16T19:29:32.352Z,-1.39
2022-12-16T19:32:17.231Z,-1.45
2022-12-16T19:35:02.591Z,-1.49
2022-12-16T19:37:47.407Z,-1.51
2022-12-16T19:40:32.308Z,-1.52
2022-12-16T19:43:31.508Z,-1.59
2022-12-16T19:46:17.638Z,-1.59
2022-12-16T19:49:02.804Z,-1.63
2022-12-16T19:51:47.693Z,-1.64
2022-12-16T19:54:32.595Z,-1.68
2022-12-16T19:57:17.844Z,-1.69
2022-12-16T20:00:02.715Z,-1.71
2022-12-16T20:02:57.861Z,-1.70
2022-12-16T20:05:43.173Z,-1.75
2022-12-16T20:08:28.209Z,-1.79
2022-12-16T20:11:12.939Z,-1.79
2022-12-16T20:13:58.005Z,-1.82
2022-12-16T20:16:45.860Z,-1.93
2022-12-16T20:19:32.021Z,-2.01
2022-12-16T20:22:22.268Z,-2.10
2022-12-16T20:25:07.248Z,-2.19
2022-12-16T20:27:52.087Z,-2.29
2022-12-16T20:30:51.748Z,-2.38
2022-12-16T20:33:36.888Z,-2.45
2022-12-16T20:36:24.029Z,-2.48
2022-12-16T20:39:08.959Z,-2.52
2022-12-16T20:41:56.182Z,-2.64
2022-12-16T20:44:41.620Z,-2.68
2022-12-16T20:47:22.977Z,-2.30
2022-12-16T20:50:07.808Z,-2.33
2022-12-16T20:52:53.791Z,-2.47
2022-12-16T20:55:39.045Z,-2.63
2022-12-16T20:58:24.426Z,-2.77
2022-12-16T21:01:09.678Z,-2.91
2022-12-16T21:03:56.184Z,-2.98
2022-12-16T21:06:41.690Z,-3.07
2022-12-16T21:09:27.726Z,-3.15
2022-12-16T21:12:09.108Z,-3.22
2022-12-16T21:14:53.237Z,-3.21
2022-12-16T21:17:38.443Z,-3.26
2022-12-16T21:20:23.944Z,-3.32
2022-12-16T21:23:15.738Z,-3.38
2022-12-16T21:26:01.948Z,-3.44
2022-12-16T21:28:46.794Z,-3.49
2022-12-16T21:31:31.799Z,-3.54
2022-12-16T21:34:16.564Z,-3.62
2022-12-16T21:37:01.425Z,-3.71
2022-12-16T21:39:46.256Z,-3.75
2022-12-16T21:42:35.504Z,-3.80
2022-12-16T21:45:23.372Z,-3.80
2022-12-16T21:48:10.605Z,-3.87
2022-12-16T21:50:56.551Z,-3.88
2022-12-16T21:53:42.103Z,-3.89
2022-12-16T21:56:28.231Z,-3.94
2022-12-16T21:59:14.257Z,-3.98
2022-12-16T22:01:59.198Z,-4.00
2022-12-16T22:04:44.552Z,-4.04
2022-12-16T22:07:29.483Z,-4.06
2022-12-16T22:10:13.518Z,-4.09
2022-12-16T22:12:58.541Z,-4.10
2022-12-16T22:15:45.312Z,-4.08
2022-12-16T22:18:30.151Z,-4.10
2022-12-16T22:21:16.055Z,-4.06
2022-12-16T22:24:00.812Z,-4.08
2022-12-16T22:26:45.705Z,-4.07
2022-12-16T22:29:29.714Z,-4.09
2022-12-16T22:32:15.861Z,-4.06
2022-12-16T22:35:02.248Z,-4.01
2022-12-16T22:37:46.910Z,-4.06
2022-12-16T22:40:31.646Z,-4.08
2022-12-16T22:43:16.493Z,-4.12
2022-12-16T22:46:01.993Z,-4.13
2022-12-16T22:48:48.505Z,-4.08
2022-12-16T22:51:34.297Z,-4.06
2022-12-16T22:54:19.614Z,-4.02
2022-12-16T22:57:04.911Z,-3.98
2022-12-16T22:59:49.770Z,-3.99
2022-12-16T23:02:34.615Z,-3.96
2022-12-16T23:05:27.136Z,-3.98
2022-12-16T23:08:12.495Z,-3.95
2022-12-16T23:10:57.279Z,-3.96
2022-12-16T23:13:44.017Z,-3.92
2022-12-16T23:16:28.774Z,-3.92
2022-12-16T23:19:13.625Z,-3.96
2022-12-16T23:21:59.838Z,-3.98
2022-12-16T23:24:44.787Z,-3.96
2022-12-16T23:27:29.458Z,-4.06
2022-12-16T23:30:14.274Z,-4.10
2022-12-16T23:32:59.048Z,-4.10
2022-12-16T23:35:43.838Z,-4.12
2022-12-16T23:38:29.938Z,-4.14
2022-12-16T23:41:15.271Z,-4.20
2022-12-16T23:44:00.177Z,-4.27
2022-12-16T23:46:45.488Z,-4.29
2022-12-16T23:49:30.671Z,-4.32
2022-12-16T23:52:15.981Z,-4.35
2022-12-16T23:55:02.284Z,-4.38
2022-12-16T23:57:47.434Z,-4.46
